createdAt,value
2022-07-25T00:01:53.365Z,10.90
2022-07-25T00:04:20.494Z,10.30
2022-07-25T00:06:49.499Z,10.82
2022-07-25T00:09:16.254Z,10.27
2022-07-25T00:11:43.412Z,11.15
2022-07-25T00:14:11.447Z,10.63
2022-07-25T00:16:38.504Z,10.63
2022-07-25T00:19:05.709Z,11.40
2022-07-25T00:21:32.757Z,11.50
2022-07-25T00:24:00.881Z,10.88
2022-07-25T00:26:27.722Z,10.52
2022-07-25T00:28:55.835Z,10.68
2022-07-25T00:31:22.853Z,9.95
2022-07-25T00:33:49.661Z,11.50
2022-07-25T00:36:17.596Z,12.75
2022-07-25T00:38:44.559Z,11.40
2022-07-25T00:41:11.478Z,11.52
2022-07-25T00:43:38.226Z,11.55
2022-07-25T00:46:05.317Z,11.20
2022-07-25T00:48:32.175Z,11.88
2022-07-25T00:50:59.832Z,11.30
2022-07-25T00:53:26.904Z,10.02
2022-07-25T00:55:54.410Z,9.82
2022-07-25T00:58:21.536Z,10.77
2022-07-25T01:00:48.365Z,11.35
2022-07-25T01:03:16.209Z,10.55
2022-07-25T01:05:43.131Z,11.05
2022-07-25T01:08:10.723Z,11.20
2022-07-25T01:10:38.773Z,11.40
2022-07-25T01:13:06.411Z,10.73
2022-07-25T01:15:33.434Z,10.85
2022-07-25T01:18:00.203Z,10.30
2022-07-25T01:20:28.794Z,11.23
2022-07-25T01:22:56.472Z,11.00
2022-07-25T01:25:23.612Z,11.18
2022-07-25T01:27:55.529Z,11.63
2022-07-25T01:30:23.909Z,12.80
2022-07-25T01:32:51.546Z,10.10
2022-07-25T01:35:18.471Z,10.18
2022-07-25T01:37:46.087Z,10.27
2022-07-25T01:40:13.828Z,10.60
2022-07-25T01:42:41.730Z,10.57
2022-07-25T01:45:09.276Z,10.50
2022-07-25T01:47:36.077Z,10.38
2022-07-25T01:50:03.160Z,10.55
2022-07-25T01:52:30.159Z,10.20
2022-07-25T01:54:56.919Z,11.00
2022-07-25T01:57:26.600Z,10.43
2022-07-25T02:00:00.227Z,9.93
2022-07-25T02:02:27.482Z,10.20
2022-07-25T02:04:54.443Z,10.48
2022-07-25T02:07:21.290Z,11.05
2022-07-25T02:09:50.137Z,10.75
2022-07-25T02:12:20.335Z,10.07
2022-07-25T02:14:47.277Z,9.95
2022-07-25T02:17:14.046Z,11.10
2022-07-25T02:19:41.048Z,10.18
2022-07-25T02:22:08.108Z,11.13
2022-07-25T02:24:34.947Z,10.68
2022-07-25T02:27:01.681Z,11.32
2022-07-25T02:29:28.425Z,10.50
2022-07-25T02:31:55.343Z,11.38
2022-07-25T02:34:22.070Z,10.02
2022-07-25T02:36:49.117Z,10.82
2022-07-25T02:39:15.892Z,11.18
2022-07-25T02:41:43.891Z,10.77
2022-07-25T02:44:10.929Z,11.20
2022-07-25T02:46:37.995Z,10.50
2022-07-25T02:49:05.111Z,11.02
2022-07-25T02:51:32.471Z,9.63
2022-07-25T02:53:59.395Z,10.38
2022-07-25T02:56:30.246Z,10.07
2022-07-25T02:58:59.281Z,10.65
2022-07-25T03:01:26.451Z,11.35
2022-07-25T03:03:53.381Z,10.95
2022-07-25T03:06:20.510Z,10.82
2022-07-25T03:08:47.383Z,10.77
2022-07-25T03:11:14.435Z,10.93
2022-07-25T03:13:41.550Z,10.55
2022-07-25T03:16:08.702Z,9.57
2022-07-25T03:18:35.798Z,13.15
2022-07-25T03:21:02.570Z,10.75
2022-07-25T03:23:30.917Z,10.13
2022-07-25T03:25:58.396Z,10.00
2022-07-25T03:28:25.500Z,10.05
2022-07-25T03:30:53.648Z,10.00
2022-07-25T03:33:20.374Z,11.10
2022-07-25T03:35:47.219Z,9.90
2022-07-25T03:38:14.107Z,10.23
2022-07-25T03:40:41.013Z,9.60
2022-07-25T03:43:07.799Z,11.80
2022-07-25T03:45:34.821Z,9.77
2022-07-25T03:48:02.410Z,9.65
2022-07-25T03:50:29.530Z,9.30
2022-07-25T03:52:56.570Z,9.25
2022-07-25T03:55:23.420Z,9.30
2022-07-25T03:57:51.018Z,9.80
2022-07-25T04:00:18.596Z,8.93
2022-07-25T04:02:45.438Z,8.88
2022-07-25T04:05:12.726Z,9.25
2022-07-25T04:07:39.895Z,8.60
2022-07-25T04:10:07.545Z,8.50
2022-07-25T04:12:34.552Z,8.27
2022-07-25T04:15:03.246Z,7.97
2022-07-25T04:17:30.356Z,7.82
2022-07-25T04:19:57.424Z,8.57
2022-07-25T04:22:24.163Z,7.60
2022-07-25T04:24:51.181Z,8.55
2022-07-25T04:27:18.200Z,8.85
2022-07-25T04:29:44.954Z,8.13
2022-07-25T04:32:12.619Z,8.15
2022-07-25T04:34:39.323Z,8.70
2022-07-25T04:37:06.186Z,7.80
2022-07-25T04:39:33.251Z,8.05
2022-07-25T04:41:59.998Z,7.38
2022-07-25T04:44:26.904Z,7.80
2022-07-25T04:46:53.818Z,10.70
2022-07-25T04:49:20.821Z,8.35
2022-07-25T04:51:47.864Z,8.05
2022-07-25T04:54:14.590Z,7.25
2022-07-25T04:56:41.669Z,7.13
2022-07-25T04:59:08.634Z,6.82
2022-07-25T05:01:36.009Z,6.93
2022-07-25T05:04:03.744Z,6.78
2022-07-25T05:06:30.954Z,7.28
2022-07-25T05:08:58.523Z,6.88
2022-07-25T05:11:25.280Z,6.72
2022-07-25T05:13:52.168Z,6.70
2022-07-25T05:16:19.015Z,6.35
2022-07-25T05:18:45.754Z,6.90
2022-07-25T05:21:12.994Z,6.10
2022-07-25T05:23:40.979Z,6.15
2022-07-25T05:26:07.934Z,6.25
2022-07-25T05:28:34.626Z,7.50
2022-07-25T05:31:02.060Z,6.40
2022-07-25T05:33:32.542Z,6.30
2022-07-25T05:35:59.308Z,6.72
2022-07-25T05:38:26.122Z,5.90
2022-07-25T05:40:52.881Z,6.28
2022-07-25T05:43:20.204Z,6.30
2022-07-25T05:48:34.551Z,6.72
2022-07-25T05:51:05.784Z,6.22
2022-07-25T05:53:35.705Z,5.75
2022-07-25T05:56:24.373Z,6.45
2022-07-25T05:58:51.382Z,7.57
2022-07-25T06:01:18.611Z,6.10
2022-07-25T06:03:46.079Z,6.15
2022-07-25T06:06:56.071Z,6.25
2022-07-25T06:09:28.726Z,5.50
2022-07-25T06:12:00.153Z,5.38
2022-07-25T06:14:31.505Z,6.07
2022-07-25T06:16:59.956Z,5.70
2022-07-25T06:19:27.757Z,7.78
2022-07-25T06:21:55.413Z,5.53
2022-07-25T06:24:23.135Z,5.32
2022-07-25T06:26:53.471Z,5.20
2022-07-25T06:29:20.503Z,6.10
2022-07-25T06:31:50.888Z,6.15
2022-07-25T06:34:17.971Z,5.38
2022-07-25T06:36:54.402Z,6.60
2022-07-25T06:39:39.490Z,6.60
2022-07-25T06:42:08.659Z,5.32
2022-07-25T06:44:37.529Z,5.18
2022-07-25T06:47:05.695Z,5.65
2022-07-25T06:49:32.628Z,5.50
2022-07-25T06:51:59.525Z,5.45
2022-07-25T06:54:26.304Z,6.13
2022-07-25T06:56:53.112Z,6.53
2022-07-25T06:59:19.764Z,6.30
2022-07-25T07:01:51.293Z,5.47
2022-07-25T07:04:18.658Z,6.72
2022-07-25T07:06:45.483Z,5.30
2022-07-25T07:09:12.375Z,5.15
2022-07-25T07:11:39.266Z,5.15
2022-07-25T07:14:06.486Z,5.30
2022-07-25T07:16:33.670Z,5.95
2022-07-25T07:19:00.524Z,5.35
2022-07-25T07:21:36.978Z,5.93
2022-07-25T07:24:03.767Z,5.55
2022-07-25T07:26:50.358Z,5.22
2022-07-25T07:29:17.106Z,5.63
2022-07-25T07:31:47.705Z,5.10
2022-07-25T07:34:19.994Z,5.63
2022-07-25T07:36:47.166Z,5.75
2022-07-25T07:39:13.984Z,6.72
2022-07-25T12:06:54.391Z,6.07
2022-07-25T13:53:01.141Z,5.28
2022-07-25T14:52:08.888Z,5.80
2022-07-25T14:54:35.940Z,6.22
2022-07-25T14:57:03.630Z,6.43
2022-07-25T14:59:30.596Z,6.97
2022-07-25T15:01:57.477Z,6.10
2022-07-25T15:04:25.586Z,6.10
2022-07-25T15:06:52.874Z,7.00
2022-07-25T15:09:21.113Z,6.53
2022-07-25T15:11:48.490Z,7.07
2022-07-25T15:14:15.630Z,7.10
2022-07-25T15:16:43.133Z,7.20
2022-07-25T15:19:18.036Z,13.20
2022-07-25T15:29:21.301Z,4.82
2022-07-25T15:31:51.206Z,5.63
2022-07-25T15:34:17.958Z,4.32
2022-07-25T15:36:44.707Z,5.13
2022-07-25T15:39:11.633Z,5.18
2022-07-25T15:41:38.371Z,5.88
2022-07-25T15:44:05.254Z,4.80
2022-07-25T15:46:32.719Z,4.95
2022-07-25T15:48:59.660Z,8.13
2022-07-25T15:51:26.323Z,4.57
2022-07-25T15:53:52.964Z,5.78
2022-07-25T15:56:19.666Z,4.63
2022-07-25T15:58:49.321Z,4.07
2022-07-25T16:01:17.199Z,3.28
2022-07-25T16:03:44.082Z,4.05
2022-07-25T16:06:14.280Z,2.78
2022-07-25T16:08:43.989Z,4.60
2022-07-25T16:11:10.549Z,4.32
2022-07-25T16:13:37.127Z,5.05
2022-07-25T16:16:04.778Z,4.25
2022-07-25T16:18:31.628Z,4.65
2022-07-25T16:20:58.262Z,2.05
2022-07-25T16:23:28.137Z,3.85
2022-07-25T16:25:54.816Z,4.68
2022-07-25T16:28:21.406Z,2.97
2022-07-25T16:30:48.628Z,3.03
2022-07-25T16:33:15.724Z,2.25
2022-07-25T16:35:42.385Z,5.18
2022-07-25T16:38:09.559Z,2.97
2022-07-25T16:40:36.368Z,2.92
2022-07-25T16:43:03.058Z,2.47
2022-07-25T16:45:30.499Z,3.50
2022-07-25T16:47:57.095Z,3.60
2022-07-25T16:50:23.911Z,5.28
2022-07-25T16:52:51.005Z,2.63
2022-07-25T16:55:17.800Z,3.92
2022-07-25T16:57:44.385Z,3.58
2022-07-25T17:00:11.565Z,6.65
2022-07-25T17:02:38.339Z,4.38
2022-07-25T17:05:05.393Z,5.45
2022-07-25T17:07:32.707Z,4.90
2022-07-25T17:09:59.356Z,4.63
2022-07-25T17:12:26.193Z,4.32
2022-07-25T17:14:52.908Z,6.03
2022-07-25T17:17:19.541Z,5.28
2022-07-25T17:19:46.103Z,5.40
2022-07-25T17:22:12.974Z,5.90
2022-07-25T17:24:40.009Z,5.10
2022-07-25T17:27:08.028Z,3.30
2022-07-25T17:29:35.379Z,5.28
2022-07-25T17:32:02.064Z,4.97
2022-07-25T17:34:28.810Z,5.00
2022-07-25T17:36:55.666Z,4.97
2022-07-25T17:39:22.306Z,5.70
2022-07-25T17:41:49.344Z,6.03
2022-07-25T17:44:16.313Z,3.70
2022-07-25T17:46:43.286Z,3.88
2022-07-25T17:49:09.979Z,3.38
2022-07-25T17:51:36.751Z,3.35
2022-07-25T17:54:03.518Z,3.67
2022-07-25T17:56:30.910Z,4.35
2022-07-25T17:58:57.578Z,5.13
2022-07-25T18:01:24.193Z,4.10
2022-07-25T18:03:51.075Z,3.85
2022-07-25T18:06:17.824Z,5.13
2022-07-25T18:08:44.486Z,3.40
2022-07-25T18:11:11.256Z,5.97
2022-07-25T18:13:38.003Z,4.40
2022-07-25T18:16:04.986Z,5.28
2022-07-25T18:18:32.945Z,4.68
2022-07-25T18:21:00.030Z,4.38
2022-07-25T18:23:28.603Z,6.80
2022-07-25T18:25:55.437Z,5.22
2022-07-25T18:28:22.397Z,4.88
2022-07-25T18:30:51.695Z,4.25
2022-07-25T18:33:19.086Z,4.28
2022-07-25T18:35:46.711Z,4.10
2022-07-25T18:38:13.634Z,4.55
2022-07-25T18:40:40.260Z,6.35
2022-07-25T18:43:08.802Z,7.38
2022-07-25T18:45:39.074Z,3.40
2022-07-25T18:48:06.576Z,3.90
2022-07-25T18:50:33.328Z,4.43
2022-07-25T18:53:00.219Z,5.28
2022-07-25T18:55:27.085Z,6.07
2022-07-25T18:57:53.877Z,5.30
2022-07-25T19:00:20.964Z,5.93
2022-07-25T19:02:47.691Z,5.07
2022-07-25T19:05:15.762Z,2.72
2022-07-25T19:07:42.842Z,4.05
2022-07-25T19:10:10.602Z,3.30
2022-07-25T19:12:38.353Z,5.60
2022-07-25T19:15:06.562Z,3.67
2022-07-25T19:17:34.698Z,4.10
2022-07-25T19:20:01.349Z,3.33
2022-07-25T19:22:28.065Z,4.38
2022-07-25T19:24:54.779Z,4.95
2022-07-25T19:27:23.761Z,4.53
2022-07-25T19:29:50.920Z,6.10
2022-07-25T19:32:18.140Z,5.68
2022-07-25T19:34:44.999Z,4.55
2022-07-25T19:37:11.757Z,3.88
2022-07-25T19:39:38.513Z,4.90
2022-07-25T19:42:08.976Z,3.33
2022-07-25T19:44:36.649Z,4.88
2022-07-25T19:47:04.601Z,2.55
2022-07-25T19:49:33.301Z,8.93
2022-07-25T19:52:01.855Z,4.80
2022-07-25T19:54:28.455Z,8.20
2022-07-25T19:56:55.250Z,5.35
2022-07-25T19:59:22.024Z,2.67
2022-07-25T20:01:50.198Z,3.63
2022-07-25T20:04:16.909Z,3.83
2022-07-25T20:06:43.548Z,5.60
2022-07-25T20:09:11.252Z,5.07
2022-07-25T20:11:38.493Z,2.67
2022-07-25T20:14:05.547Z,5.80
2022-07-25T20:16:32.856Z,6.25
2022-07-25T20:19:00.293Z,6.43
2022-07-25T20:21:27.595Z,6.63
2022-07-25T20:23:54.450Z,3.78
2022-07-25T20:26:21.597Z,5.03
2022-07-25T20:28:48.225Z,4.65
2022-07-25T20:31:15.029Z,5.05
2022-07-25T20:33:43.105Z,5.78
2022-07-25T20:36:09.822Z,3.67
2022-07-25T20:38:36.508Z,6.18
2022-07-25T20:41:03.249Z,6.10
2022-07-25T20:43:29.969Z,4.53
2022-07-25T20:45:57.768Z,3.85
2022-07-25T20:48:25.431Z,3.65
2022-07-25T20:59:33.077Z,4.68
2022-07-25T21:07:15.952Z,4.07
2022-07-25T21:08:28.545Z,3.28
2022-07-25T21:10:55.625Z,4.10
2022-07-25T21:13:26.012Z,4.70
2022-07-25T21:16:04.992Z,3.85
2022-07-25T21:18:33.453Z,4.70
2022-07-25T21:21:11.732Z,6.03
2022-07-25T21:23:41.702Z,3.88
2022-07-25T21:26:12.294Z,5.63
2022-07-25T21:28:43.267Z,5.22
2022-07-25T21:31:21.169Z,3.50
2022-07-25T21:33:50.693Z,6.22
2022-07-25T21:36:22.046Z,2.75
2022-07-25T21:38:49.322Z,4.93
2022-07-25T21:41:36.640Z,4.00
2022-07-25T21:44:04.053Z,4.22
2022-07-25T21:46:31.929Z,5.35
2022-07-25T21:49:17.394Z,4.80
2022-07-25T21:52:04.469Z,3.58
2022-07-25T21:54:34.630Z,4.57
2022-07-25T21:57:13.359Z,4.18
2022-07-25T21:59:42.601Z,5.15
2022-07-25T22:02:10.243Z,6.32
2022-07-25T22:04:40.478Z,4.72
2022-07-25T22:07:16.331Z,5.97
2022-07-25T22:09:46.279Z,4.97
2022-07-25T22:12:14.415Z,3.90
2022-07-25T22:14:41.428Z,5.38
2022-07-25T22:17:13.388Z,4.28
2022-07-25T22:19:45.686Z,5.18
2022-07-25T22:22:12.641Z,3.95
2022-07-25T22:24:43.140Z,3.95
2022-07-25T22:27:14.372Z,3.80
2022-07-25T22:29:41.671Z,5.32
2022-07-25T22:32:08.746Z,10.80
2022-07-25T22:34:38.239Z,4.30
2022-07-25T22:37:05.384Z,4.97
2022-07-25T22:39:32.330Z,4.43
2022-07-25T22:41:59.419Z,3.72
2022-07-25T22:44:36.887Z,4.75
2022-07-25T22:47:03.852Z,6.57
2022-07-25T22:49:43.202Z,4.75
2022-07-25T22:52:10.265Z,5.53
2022-07-25T22:54:42.603Z,6.22
2022-07-25T22:57:10.180Z,6.03
2022-07-25T22:59:37.232Z,3.63
2022-07-25T23:02:06.726Z,6.15
2022-07-25T23:04:38.643Z,4.68
2022-07-25T23:07:05.618Z,8.35
2022-07-25T23:09:36.286Z,4.75
2022-07-25T23:12:07.427Z,5.43
2022-07-25T23:14:34.266Z,4.75
2022-07-25T23:17:23.159Z,4.57
2022-07-25T23:19:56.117Z,3.58
2022-07-25T23:22:25.045Z,5.13
2022-07-25T23:24:58.895Z,5.95
2022-07-25T23:27:26.855Z,6.13
2022-07-25T23:29:53.821Z,4.55
2022-07-25T23:32:20.703Z,7.07
2022-07-25T23:34:47.784Z,5.07
2022-07-25T23:37:14.568Z,4.78
2022-07-25T23:39:41.848Z,5.47
2022-07-25T23:42:08.848Z,7.05
2022-07-25T23:44:38.568Z,5.47
2022-07-25T23:47:10.008Z,7.97
2022-07-25T23:49:37.245Z,7.18
2022-07-25T23:52:06.406Z,6.00
2022-07-25T23:54:35.079Z,3.88
2022-07-25T23:57:02.971Z,7.43
2022-07-25T23:59:29.746Z,7.68
